createdAt,value
2018-09-11T00:02:13.794Z,18.76
2018-09-11T00:04:42.812Z,18.73
2018-09-11T00:07:11.160Z,18.75
2018-09-11T00:09:39.556Z,18.78
2018-09-11T00:12:07.951Z,18.79
2018-09-11T00:14:36.286Z,18.82
2018-09-11T00:17:04.908Z,18.77
2018-09-11T00:19:33.484Z,18.78
2018-09-11T00:22:01.954Z,18.81
2018-09-11T00:24:30.437Z,18.82
2018-09-11T00:26:59.000Z,18.83
2018-09-11T00:29:27.428Z,18.82
2018-09-11T00:31:55.868Z,18.84
2018-09-11T00:34:24.416Z,18.85
2018-09-11T00:36:53.050Z,18.83
2018-09-11T00:39:21.464Z,18.84
2018-09-11T00:41:49.993Z,18.87
2018-09-11T00:44:18.336Z,18.90
2018-09-11T00:46:46.964Z,18.93
2018-09-11T00:49:15.378Z,18.92
2018-09-11T00:51:43.899Z,18.91
2018-09-11T00:54:12.252Z,18.88
2018-09-11T00:56:40.816Z,18.89
2018-09-11T00:59:09.164Z,18.86
2018-09-11T01:01:37.534Z,18.84
2018-09-11T01:04:05.964Z,18.85
2018-09-11T01:06:34.388Z,18.83
2018-09-11T01:09:02.920Z,18.81
2018-09-11T01:11:31.299Z,18.80
2018-09-11T01:13:59.846Z,18.76
2018-09-11T01:16:28.232Z,18.74
2018-09-11T01:18:56.730Z,18.73
2018-09-11T01:21:25.140Z,18.71
2018-09-11T01:23:53.915Z,18.74
2018-09-11T01:26:22.484Z,18.70
2018-09-11T01:28:50.838Z,18.68
2018-09-11T01:31:20.228Z,18.68
2018-09-11T01:33:48.704Z,18.66
2018-09-11T01:36:17.083Z,18.64
2018-09-11T01:38:45.520Z,18.65
2018-09-11T01:41:13.972Z,18.65
2018-09-11T01:43:42.446Z,18.66
2018-09-11T01:46:10.804Z,18.63
2018-09-11T01:48:39.294Z,18.62
2018-09-11T01:51:07.807Z,18.61
2018-09-11T01:53:36.263Z,18.60
2018-09-11T01:56:04.745Z,18.60
2018-09-11T01:58:33.121Z,18.60
2018-09-11T02:01:01.542Z,18.59
2018-09-11T02:03:30.091Z,18.55
2018-09-11T02:05:58.539Z,18.54
2018-09-11T02:08:27.017Z,18.53
2018-09-11T02:10:55.425Z,18.52
2018-09-11T02:13:23.795Z,18.50
2018-09-11T02:15:52.277Z,18.51
2018-09-11T02:18:20.646Z,18.50
2018-09-11T02:20:49.046Z,18.53
2018-09-11T02:23:17.412Z,18.53
2018-09-11T02:25:45.845Z,18.52
2018-09-11T02:28:14.362Z,18.53
2018-09-11T02:30:42.759Z,18.51
2018-09-11T02:33:11.167Z,18.51
2018-09-11T02:35:40.444Z,18.48
2018-09-11T02:38:08.805Z,18.46
2018-09-11T02:40:37.486Z,18.41
2018-09-11T02:43:05.909Z,18.37
2018-09-11T02:45:34.242Z,18.33
2018-09-11T02:48:02.685Z,18.32
2018-09-11T02:50:31.004Z,18.30
2018-09-11T02:52:59.374Z,18.27
2018-09-11T02:55:27.722Z,18.25
2018-09-11T02:57:56.285Z,18.24
2018-09-11T03:00:24.703Z,18.21
2018-09-11T03:02:53.191Z,18.21
2018-09-11T03:05:21.581Z,18.21
2018-09-11T03:07:49.992Z,18.19
2018-09-11T03:10:18.358Z,18.19
2018-09-11T03:12:46.722Z,18.18
2018-09-11T03:15:15.039Z,18.15
2018-09-11T03:17:43.667Z,18.13
2018-09-11T03:20:12.227Z,18.10
2018-09-11T03:22:40.705Z,18.10
2018-09-11T03:25:09.455Z,18.09
2018-09-11T03:27:37.825Z,18.09
2018-09-11T03:30:06.999Z,18.10
2018-09-11T03:32:35.358Z,18.10
2018-09-11T03:35:03.825Z,18.09
2018-09-11T03:37:32.178Z,18.07
2018-09-11T03:40:00.546Z,18.06
2018-09-11T03:42:29.061Z,18.06
2018-09-11T03:44:57.483Z,18.04
2018-09-11T03:47:26.021Z,18.01
2018-09-11T03:49:55.151Z,18.03
2018-09-11T03:52:24.083Z,18.01
2018-09-11T03:54:52.560Z,18.00
2018-09-11T03:57:20.911Z,17.99
2018-09-11T03:59:49.354Z,17.99
2018-09-11T04:02:17.732Z,17.98
2018-09-11T04:04:46.051Z,17.98
2018-09-11T04:07:14.393Z,17.95
2018-09-11T04:09:42.814Z,17.93
2018-09-11T04:12:11.779Z,17.95
2018-09-11T04:14:40.115Z,17.95
2018-09-11T04:17:08.571Z,17.95
2018-09-11T04:19:36.937Z,17.94
2018-09-11T04:22:05.319Z,17.93
2018-09-11T04:24:33.965Z,17.93
2018-09-11T04:27:02.410Z,17.92
2018-09-11T04:29:30.849Z,17.89
2018-09-11T04:31:59.257Z,17.88
2018-09-11T04:34:27.603Z,17.86
2018-09-11T04:36:55.929Z,17.85
2018-09-11T04:39:24.311Z,17.84
2018-09-11T04:41:52.645Z,17.85
2018-09-11T04:44:21.025Z,17.84
2018-09-11T04:46:49.437Z,17.83
2018-09-11T04:49:17.753Z,17.79
2018-09-11T04:51:46.097Z,17.77
2018-09-11T04:54:14.733Z,17.76
2018-09-11T04:56:43.222Z,17.76
2018-09-11T04:59:11.593Z,17.75
2018-09-11T05:01:40.080Z,17.75
2018-09-11T05:04:08.459Z,17.75
2018-09-11T05:06:36.804Z,17.75
2018-09-11T05:09:08.401Z,17.76
2018-09-11T05:11:36.768Z,17.78
2018-09-11T05:14:05.162Z,17.78
2018-09-11T05:16:33.722Z,17.79
2018-09-11T05:19:02.184Z,17.84
2018-09-11T05:21:30.519Z,17.84
2018-09-11T05:23:58.895Z,17.81
2018-09-11T05:26:27.245Z,17.79
2018-09-11T05:28:55.622Z,17.82
2018-09-11T05:31:24.028Z,17.83
2018-09-11T05:33:52.371Z,17.85
2018-09-11T05:36:20.718Z,17.86
2018-09-11T05:38:49.133Z,17.90
2018-09-11T05:41:17.638Z,17.94
2018-09-11T05:43:45.944Z,17.90
2018-09-11T05:46:14.448Z,17.93
2018-09-11T05:48:42.793Z,17.92
2018-09-11T05:51:11.170Z,17.93
2018-09-11T05:53:39.698Z,17.96
2018-09-11T05:56:08.066Z,17.99
2018-09-11T05:58:36.520Z,18.02
2018-09-11T06:01:04.917Z,18.07
2018-09-11T06:03:33.334Z,18.07
2018-09-11T06:06:01.812Z,18.10
2018-09-11T06:08:30.239Z,18.13
2018-09-11T06:10:58.749Z,18.16
2018-09-11T06:13:27.151Z,18.17
2018-09-11T06:15:55.504Z,18.22
2018-09-11T06:18:23.905Z,18.26
2018-09-11T06:20:52.309Z,18.28
2018-09-11T06:23:20.676Z,18.29
2018-09-11T06:25:49.041Z,18.30
2018-09-11T06:28:17.423Z,18.35
2018-09-11T06:30:45.924Z,18.37
2018-09-11T06:33:14.276Z,18.40
2018-09-11T06:35:42.644Z,18.44
2018-09-11T06:38:11.072Z,18.50
2018-09-11T06:40:39.424Z,18.53
2018-09-11T06:43:07.852Z,18.58
2018-09-11T06:45:36.560Z,18.64
2018-09-11T06:48:05.820Z,18.71
2018-09-11T06:50:34.172Z,18.77
2018-09-11T06:53:02.528Z,18.80
2018-09-11T06:55:31.122Z,18.82
2018-09-11T06:57:59.484Z,18.85
2018-09-11T07:00:27.998Z,18.86
2018-09-11T07:02:56.317Z,18.88
2018-09-11T07:05:24.750Z,18.89
2018-09-11T07:07:53.165Z,18.95
2018-09-11T07:10:21.709Z,18.96
2018-09-11T07:12:50.168Z,18.97
2018-09-11T07:15:20.260Z,19.02
2018-09-11T07:17:48.620Z,19.07
2018-09-11T07:20:17.267Z,19.13
2018-09-11T07:22:45.462Z,19.14
2018-09-11T07:25:14.097Z,19.16
2018-09-11T07:27:42.574Z,19.21
2018-09-11T07:30:11.016Z,19.24
2018-09-11T07:32:39.527Z,19.29
2018-09-11T07:35:07.966Z,19.37
2018-09-11T07:37:36.714Z,19.42
2018-09-11T07:40:05.146Z,19.47
2018-09-11T07:42:33.490Z,19.55
2018-09-11T07:45:01.847Z,19.62
2018-09-11T07:47:30.229Z,19.71
2018-09-11T07:49:58.786Z,19.78
2018-09-11T07:52:27.698Z,19.89
2018-09-11T07:54:56.204Z,19.94
2018-09-11T07:57:24.993Z,20.02
2018-09-11T07:59:53.402Z,20.10
2018-09-11T08:02:21.745Z,20.18
2018-09-11T08:04:50.097Z,20.30
2018-09-11T08:07:18.528Z,20.37
2018-09-11T08:09:47.543Z,20.44
2018-09-11T08:12:15.878Z,20.49
2018-09-11T08:14:44.440Z,20.56
2018-09-11T08:17:12.762Z,20.61
2018-09-11T08:19:41.297Z,20.63
2018-09-11T08:22:09.619Z,20.66
2018-09-11T08:24:37.959Z,20.74
2018-09-11T08:27:06.445Z,20.83
2018-09-11T08:29:35.025Z,20.94
2018-09-11T08:32:03.380Z,21.06
2018-09-11T08:34:31.847Z,21.18
2018-09-11T08:37:00.312Z,21.27
2018-09-11T08:39:28.750Z,21.37
2018-09-11T08:41:57.127Z,21.47
2018-09-11T08:44:25.500Z,21.54
2018-09-11T08:46:53.896Z,21.63
2018-09-11T08:49:22.263Z,21.74
2018-09-11T08:51:50.796Z,21.78
2018-09-11T08:54:19.224Z,21.81
2018-09-11T08:56:47.605Z,21.88
2018-09-11T08:59:15.960Z,21.94
2018-09-11T09:01:44.448Z,22.03
2018-09-11T09:04:12.880Z,22.09
2018-09-11T09:06:41.520Z,22.12
2018-09-11T09:09:11.465Z,22.14
2018-09-11T09:11:39.986Z,22.21
2018-09-11T09:14:08.456Z,22.28
2018-09-11T09:16:36.900Z,22.37
2018-09-11T09:19:05.268Z,22.41
2018-09-11T09:21:33.755Z,22.45
2018-09-11T09:24:02.088Z,22.54
2018-09-11T09:26:30.428Z,22.58
2018-09-11T09:28:58.964Z,22.62
2018-09-11T09:31:27.464Z,22.68
2018-09-11T09:33:55.938Z,22.76
2018-09-11T09:36:24.445Z,22.84
2018-09-11T09:38:52.792Z,22.87
2018-09-11T09:41:21.197Z,22.92
2018-09-11T09:43:49.620Z,23.02
2018-09-11T09:46:18.064Z,23.17
2018-09-11T09:48:46.496Z,23.30
2018-09-11T09:51:15.101Z,23.35
2018-09-11T09:53:43.434Z,23.45
2018-09-11T09:56:12.024Z,23.54
2018-09-11T09:58:40.512Z,23.62
2018-09-11T10:01:14.167Z,23.72
2018-09-11T10:03:42.722Z,23.81
2018-09-11T10:06:11.100Z,23.87
2018-09-11T10:08:39.492Z,23.95
2018-09-11T10:11:07.903Z,24.04
2018-09-11T10:13:36.236Z,24.13
2018-09-11T10:16:04.683Z,24.24
2018-09-11T10:18:33.143Z,24.30
2018-09-11T10:21:01.575Z,24.34
2018-09-11T10:23:30.125Z,24.32
2018-09-11T10:25:58.583Z,24.41
2018-09-11T10:28:27.072Z,24.53
2018-09-11T10:30:55.644Z,24.58
2018-09-11T10:33:24.056Z,24.67
2018-09-11T10:35:52.463Z,24.78
2018-09-11T10:38:20.843Z,24.84
2018-09-11T10:40:49.425Z,24.89
2018-09-11T10:43:17.799Z,24.93
2018-09-11T10:45:46.189Z,25.01
2018-09-11T10:48:14.756Z,25.10
2018-09-11T10:50:43.160Z,25.14
2018-09-11T10:53:11.524Z,25.23
2018-09-11T10:55:39.937Z,25.33
2018-09-11T10:58:08.364Z,25.42
2018-09-11T11:00:36.702Z,25.43
2018-09-11T11:03:05.432Z,25.45
2018-09-11T11:05:33.840Z,25.56
2018-09-11T11:08:02.293Z,25.66
2018-09-11T11:10:30.746Z,25.77
2018-09-11T11:12:59.120Z,25.85
2018-09-11T11:15:27.456Z,25.87
2018-09-11T11:17:55.848Z,25.97
2018-09-11T11:20:25.112Z,26.08
2018-09-11T11:22:53.525Z,26.15
2018-09-11T11:25:22.020Z,26.23
2018-09-11T11:27:50.350Z,26.29
2018-09-11T11:30:18.677Z,26.38
2018-09-11T11:32:47.052Z,26.47
2018-09-11T11:35:15.500Z,26.55
2018-09-11T11:37:43.868Z,26.61
2018-09-11T11:40:12.308Z,26.65
2018-09-11T11:42:40.766Z,26.70
2018-09-11T11:45:09.472Z,26.71
2018-09-11T11:47:37.956Z,26.81
2018-09-11T11:50:07.136Z,26.85
2018-09-11T11:52:35.608Z,26.94
2018-09-11T11:55:04.254Z,27.09
2018-09-11T11:57:32.833Z,27.28
2018-09-11T12:00:01.214Z,27.48
2018-09-11T12:02:29.614Z,27.60
2018-09-11T12:04:57.975Z,27.67
2018-09-11T12:07:26.332Z,27.73
2018-09-11T12:09:54.934Z,27.73
2018-09-11T12:12:23.315Z,27.77
2018-09-11T12:14:51.709Z,27.79
2018-09-11T12:17:20.255Z,27.92
2018-09-11T12:19:48.667Z,27.95
2018-09-11T12:22:17.100Z,28.03
2018-09-11T12:24:45.618Z,28.13
2018-09-11T12:27:13.964Z,28.18
2018-09-11T12:29:42.382Z,28.10
2018-09-11T12:32:10.955Z,28.03
2018-09-11T12:34:39.309Z,28.07
2018-09-11T12:37:07.656Z,28.10
2018-09-11T12:39:36.023Z,28.12
2018-09-11T12:42:04.509Z,28.24
2018-09-11T12:44:32.949Z,28.37
2018-09-11T12:47:01.768Z,28.45
2018-09-11T12:49:29.856Z,28.50
2018-09-11T12:51:58.307Z,28.60
2018-09-11T12:54:26.873Z,28.70
2018-09-11T12:56:55.292Z,28.78
2018-09-11T12:59:23.744Z,28.84
2018-09-11T13:01:52.183Z,28.91
2018-09-11T13:04:20.515Z,28.93
2018-09-11T13:06:48.883Z,28.93
2018-09-11T13:09:17.498Z,28.96
2018-09-11T13:11:48.991Z,29.09
2018-09-11T13:14:17.665Z,29.20
2018-09-11T13:16:46.379Z,29.25
2018-09-11T13:19:14.702Z,29.28
2018-09-11T13:21:43.115Z,29.29
2018-09-11T13:24:11.783Z,29.28
2018-09-11T13:26:40.770Z,29.32
2018-09-11T13:29:09.875Z,29.36
2018-09-11T13:31:39.283Z,29.44
2018-09-11T13:34:11.770Z,29.52
2018-09-11T13:36:40.931Z,29.59
2018-09-11T13:39:10.896Z,29.65
2018-09-11T13:41:40.028Z,29.69
2018-09-11T13:44:10.243Z,29.71
2018-09-11T13:46:39.123Z,29.74
2018-09-11T13:49:08.246Z,29.73
2018-09-11T13:51:41.165Z,29.74
2018-09-11T13:54:10.573Z,29.75
2018-09-11T13:56:40.009Z,29.67
2018-09-11T13:59:08.949Z,29.68
2018-09-11T14:01:38.252Z,29.72
2018-09-11T14:04:07.908Z,29.82
2018-09-11T14:06:38.455Z,29.81
2018-09-11T14:09:17.429Z,29.75
2018-09-11T14:11:47.495Z,29.75
2018-09-11T14:14:17.277Z,29.73
2018-09-11T14:16:46.289Z,29.70
2018-09-11T14:19:16.201Z,29.72
2018-09-11T14:21:48.185Z,29.73
2018-09-11T14:24:18.257Z,29.77
2018-09-11T14:26:48.852Z,29.71
2018-09-11T14:29:18.890Z,29.66
2018-09-11T14:31:48.585Z,29.67
2018-09-11T14:34:18.306Z,29.62
2018-09-11T14:36:47.808Z,29.56
2018-09-11T14:39:16.639Z,29.54
2018-09-11T14:41:46.211Z,29.53
2018-09-11T14:44:15.671Z,29.55
2018-09-11T14:46:44.822Z,29.56
2018-09-11T14:49:14.102Z,29.59
2018-09-11T14:51:44.824Z,29.62
2018-09-11T14:54:15.134Z,29.62
2018-09-11T14:56:44.837Z,29.57
2018-09-11T14:59:15.248Z,29.64
2018-09-11T15:01:44.636Z,29.67
2018-09-11T15:04:14.233Z,29.71
2018-09-11T15:06:42.888Z,29.70
2018-09-11T15:09:15.129Z,29.71
2018-09-11T15:11:44.447Z,29.69
2018-09-11T15:14:14.108Z,29.65
2018-09-11T15:16:43.012Z,29.60
2018-09-11T15:19:13.280Z,29.56
2018-09-11T15:21:42.852Z,29.54
2018-09-11T15:24:12.596Z,29.53
2018-09-11T15:26:41.560Z,29.52
2018-09-11T15:29:13.669Z,29.57
2018-09-11T15:31:43.404Z,29.59
2018-09-11T15:34:12.669Z,29.66
2018-09-11T15:36:42.132Z,29.70
2018-09-11T15:39:11.354Z,29.69
2018-09-11T15:41:40.251Z,29.67
2018-09-11T15:44:09.112Z,29.62
2018-09-11T15:46:38.323Z,29.58
2018-09-11T15:49:08.106Z,29.54
2018-09-11T15:51:37.545Z,29.51
2018-09-11T15:54:06.842Z,29.47
2018-09-11T15:56:36.167Z,29.42
2018-09-11T15:59:06.185Z,29.36
2018-09-11T16:01:35.383Z,29.34
2018-09-11T16:05:11.712Z,29.33
2018-09-11T16:07:41.759Z,29.24
2018-09-11T16:10:10.856Z,29.15
2018-09-11T16:12:39.733Z,29.13
2018-09-11T16:15:08.701Z,29.10
2018-09-11T16:17:41.039Z,29.08
2018-09-11T16:20:15.639Z,29.03
2018-09-11T16:22:49.219Z,29.00
2018-09-11T16:25:18.184Z,28.97
2018-09-11T16:27:48.144Z,28.95
2018-09-11T16:30:17.503Z,28.88
2018-09-11T16:32:46.949Z,28.78
2018-09-11T16:35:15.382Z,28.72
2018-09-11T16:37:44.044Z,28.71
2018-09-11T16:40:12.724Z,28.72
2018-09-11T16:42:41.067Z,28.69
2018-09-11T16:45:09.756Z,28.62
2018-09-11T16:47:38.367Z,28.67
2018-09-11T16:50:06.788Z,28.63
2018-09-11T16:52:35.134Z,28.58
2018-09-11T16:55:03.795Z,28.54
2018-09-11T16:57:32.624Z,28.52
2018-09-11T17:00:01.081Z,28.46
2018-09-11T17:02:29.702Z,28.38
2018-09-11T17:04:58.112Z,28.29
2018-09-11T17:07:26.557Z,28.22
2018-09-11T17:09:54.943Z,28.13
2018-09-11T17:12:23.310Z,28.04
2018-09-11T17:14:52.832Z,27.83
2018-09-11T17:17:23.137Z,27.55
2018-09-11T17:19:51.618Z,27.40
2018-09-11T17:22:19.997Z,27.28
2018-09-11T17:24:48.399Z,27.18
2018-09-11T17:27:16.895Z,26.93
2018-09-11T17:29:45.183Z,26.68
2018-09-11T17:32:13.627Z,26.46
2018-09-11T17:34:42.071Z,26.26
2018-09-11T17:37:10.537Z,26.15
2018-09-11T17:39:39.331Z,26.11
2018-09-11T17:42:07.776Z,26.06
2018-09-11T17:44:36.196Z,26.00
2018-09-11T17:47:04.631Z,25.93
2018-09-11T17:49:33.092Z,25.90
2018-09-11T17:52:01.716Z,25.83
2018-09-11T17:54:30.169Z,25.79
2018-09-11T17:56:58.493Z,25.76
2018-09-11T17:59:26.892Z,25.71
2018-09-11T18:01:55.329Z,25.65
2018-09-11T18:04:23.816Z,25.59
2018-09-11T18:06:52.214Z,25.53
2018-09-11T18:09:20.640Z,25.50
2018-09-11T18:11:49.192Z,25.46
2018-09-11T18:14:17.563Z,25.42
2018-09-11T18:16:46.139Z,25.32
2018-09-11T18:19:14.514Z,25.24
2018-09-11T18:21:42.935Z,25.19
2018-09-11T18:24:11.482Z,25.12
2018-09-11T18:26:39.878Z,25.06
2018-09-11T18:29:08.464Z,24.96
2018-09-11T18:31:36.885Z,24.81
2018-09-11T18:34:05.225Z,24.68
2018-09-11T18:36:33.707Z,24.53
2018-09-11T18:39:02.101Z,24.43
2018-09-11T18:41:30.545Z,24.33
2018-09-11T18:43:58.946Z,24.19
2018-09-11T18:46:27.360Z,24.09
2018-09-11T18:48:55.692Z,24.08
2018-09-11T18:51:24.178Z,24.15
2018-09-11T18:53:52.946Z,24.13
2018-09-11T18:56:21.295Z,24.10
2018-09-11T18:58:49.865Z,24.03
2018-09-11T19:01:18.319Z,23.97
2018-09-11T19:03:46.717Z,23.89
2018-09-11T19:06:15.153Z,23.78
2018-09-11T19:08:43.727Z,23.71
2018-09-11T19:11:12.164Z,23.67
2018-09-11T19:13:40.500Z,23.59
2018-09-11T19:16:09.174Z,23.52
2018-09-11T19:18:37.663Z,23.48
2018-09-11T19:21:06.164Z,23.44
2018-09-11T19:23:34.696Z,23.36
2018-09-11T19:26:03.060Z,23.30
2018-09-11T19:28:31.636Z,23.30
2018-09-11T19:31:00.029Z,23.26
2018-09-11T19:33:28.369Z,23.23
2018-09-11T19:35:56.820Z,23.21
2018-09-11T19:38:25.395Z,23.17
2018-09-11T19:40:53.885Z,23.13
2018-09-11T19:43:22.243Z,23.11
2018-09-11T19:45:50.747Z,23.09
2018-09-11T19:48:19.190Z,23.06
2018-09-11T19:50:47.595Z,23.01
2018-09-11T19:53:16.048Z,22.98
2018-09-11T19:55:44.397Z,22.88
2018-09-11T19:58:12.918Z,22.74
2018-09-11T20:00:41.617Z,22.61
2018-09-11T20:03:10.018Z,22.50
2018-09-11T20:05:38.436Z,22.37
2018-09-11T20:08:07.041Z,22.24
2018-09-11T20:10:35.577Z,22.23
2018-09-11T20:13:03.976Z,22.24
2018-09-11T20:15:32.522Z,22.25
2018-09-11T20:18:00.873Z,22.21
2018-09-11T20:20:29.264Z,22.21
2018-09-11T20:22:57.840Z,22.22
2018-09-11T20:25:26.262Z,22.20
2018-09-11T20:27:54.677Z,22.17
2018-09-11T20:30:23.109Z,22.11
2018-09-11T20:32:51.562Z,21.98
2018-09-11T20:35:19.960Z,21.89
2018-09-11T20:37:48.544Z,21.85
2018-09-11T20:40:16.903Z,21.75
2018-09-11T20:42:45.664Z,21.68
2018-09-11T20:45:14.188Z,21.62
2018-09-11T20:47:42.664Z,21.62
2018-09-11T20:50:11.023Z,21.63
2018-09-11T20:52:39.472Z,21.60
2018-09-11T20:55:07.918Z,21.57
2018-09-11T20:57:36.733Z,21.56
2018-09-11T21:00:05.656Z,21.53
2018-09-11T21:02:34.991Z,21.53
2018-09-11T21:05:04.373Z,21.51
2018-09-11T21:07:33.480Z,21.50
2018-09-11T21:10:01.863Z,21.45
2018-09-11T21:12:30.351Z,21.40
2018-09-11T21:14:58.955Z,21.39
2018-09-11T21:17:27.395Z,21.33
2018-09-11T21:19:55.773Z,21.27
2018-09-11T21:22:24.231Z,21.23
2018-09-11T21:24:52.647Z,21.24
2018-09-11T21:27:21.010Z,21.28
2018-09-11T21:29:49.447Z,21.32
2018-09-11T21:32:17.864Z,21.33
2018-09-11T21:34:46.261Z,21.33
2018-09-11T21:37:14.638Z,21.33
2018-09-11T21:39:43.033Z,21.33
2018-09-11T21:42:11.483Z,21.32
2018-09-11T21:44:39.995Z,21.32
2018-09-11T21:47:08.347Z,21.21
2018-09-11T21:49:36.734Z,21.15
2018-09-11T21:52:05.242Z,21.11
2018-09-11T21:54:33.572Z,21.08
2018-09-11T21:57:01.965Z,21.03
2018-09-11T21:59:30.379Z,20.98
2018-09-11T22:02:00.853Z,20.94
2018-09-11T22:04:29.254Z,20.95
2018-09-11T22:06:57.811Z,21.00
2018-09-11T22:09:26.220Z,21.05
2018-09-11T22:11:54.736Z,21.11
2018-09-11T22:14:23.108Z,21.12
2018-09-11T22:16:51.534Z,21.11
2018-09-11T22:19:19.985Z,21.13
2018-09-11T22:21:48.286Z,21.07
2018-09-11T22:24:16.672Z,21.01
2018-09-11T22:26:45.061Z,20.98
2018-09-11T22:29:13.490Z,20.87
2018-09-11T22:31:41.918Z,20.82
2018-09-11T22:34:10.286Z,20.76
2018-09-11T22:36:38.692Z,20.70
2018-09-11T22:39:08.306Z,20.70
2018-09-11T22:41:36.660Z,20.69
2018-09-11T22:44:05.014Z,20.62
2018-09-11T22:46:33.396Z,20.60
2018-09-11T22:49:01.819Z,20.62
2018-09-11T22:51:30.277Z,20.61
2018-09-11T22:53:58.592Z,20.60
2018-09-11T22:56:26.924Z,20.65
2018-09-11T22:58:55.356Z,20.66
2018-09-11T23:01:23.684Z,20.70
2018-09-11T23:03:51.998Z,20.73
2018-09-11T23:06:20.816Z,20.76
2018-09-11T23:08:49.123Z,20.73
2018-09-11T23:11:17.440Z,20.68
2018-09-11T23:13:45.997Z,20.63
2018-09-11T23:16:14.325Z,20.61
2018-09-11T23:18:42.764Z,20.61
2018-09-11T23:21:11.172Z,20.60
2018-09-11T23:23:39.488Z,20.55
2018-09-11T23:26:08.025Z,20.49
2018-09-11T23:28:36.663Z,20.41
2018-09-11T23:31:04.992Z,20.39
2018-09-11T23:33:33.319Z,20.39
2018-09-11T23:36:01.746Z,20.34
2018-09-11T23:38:30.708Z,20.28
2018-09-11T23:40:59.073Z,20.25
2018-09-11T23:43:27.492Z,20.25
2018-09-11T23:45:55.849Z,20.26
2018-09-11T23:48:24.172Z,20.27
2018-09-11T23:50:52.620Z,20.32
2018-09-11T23:53:20.932Z,20.38
2018-09-11T23:55:49.340Z,20.39
2018-09-11T23:58:17.844Z,20.44
